Time;durP1;ratioP1;P1;durP2;ratioP2;P2;SDS_P1;SDS_P2;PMS_P1;PMS_P2;Temp;Humidity;BMP_temperature;BMP_pressure;BME280_temperature;BME280_humidity;BME280_pressure;Samples;Min_cycle;Max_cycle;Signal;HPM_P1;HPM_P2
2022/03/05 00:00:30;;;;;;;10.88;8.15;;;;;;;;;;4997932;28;20034;-80
2022/03/05 00:02:56;;;;;;;9.10;7.82;;;;;;;;;;5008127;28;20030;-80
2022/03/05 00:05:22;;;;;;;9.73;7.90;;;;;;;;;;5026112;28;20043;-80
2022/03/05 00:07:47;;;;;;;10.32;8.45;;;;;;;;;;4992005;28;20056;-81
2022/03/05 00:10:14;;;;;;;10.40;8.10;;;;;;;;;;5010147;28;20046;-81
2022/03/05 00:12:39;;;;;;;8.77;7.68;;;;;;;;;;5013279;28;20116;-80
2022/03/05 00:15:05;;;;;;;10.40;7.75;;;;;;;;;;4997029;28;20860;-80
2022/03/05 00:17:31;;;;;;;11.50;7.90;;;;;;;;;;5010258;28;20101;-81
2022/03/05 00:19:56;;;;;;;10.35;8.27;;;;;;;;;;5011817;28;20034;-80
2022/03/05 00:22:22;;;;;;;9.55;8.55;;;;;;;;;;5013162;28;20042;-80
2022/03/05 00:24:47;;;;;;;8.70;7.43;;;;;;;;;;5013604;28;20046;-80
2022/03/05 00:27:13;;;;;;;9.45;8.30;;;;;;;;;;4996670;28;20415;-80
2022/03/05 00:29:38;;;;;;;9.48;8.00;;;;;;;;;;4997200;28;20404;-80
2022/03/05 00:32:04;;;;;;;9.63;7.65;;;;;;;;;;5013116;28;20099;-81
2022/03/05 00:34:29;;;;;;;8.73;7.53;;;;;;;;;;4979736;28;20049;-80
2022/03/05 00:36:55;;;;;;;8.45;7.40;;;;;;;;;;4993620;28;20061;-80
2022/03/05 00:39:20;;;;;;;9.98;7.90;;;;;;;;;;4989271;28;20057;-81
2022/03/05 00:41:46;;;;;;;9.52;8.13;;;;;;;;;;4996589;28;20081;-81
2022/03/05 00:44:11;;;;;;;8.20;7.30;;;;;;;;;;4996752;28;20042;-81
2022/03/05 00:46:37;;;;;;;8.60;7.30;;;;;;;;;;4996800;28;20420;-81
2022/03/05 00:49:02;;;;;;;9.02;8.07;;;;;;;;;;4996966;28;20396;-81
2022/03/05 00:51:28;;;;;;;8.55;7.43;;;;;;;;;;5013133;28;20163;-80
2022/03/05 00:53:53;;;;;;;9.70;7.43;;;;;;;;;;4980394;28;20078;-80
2022/03/05 00:56:18;;;;;;;8.13;7.28;;;;;;;;;;4996328;28;20173;-80
2022/03/05 00:58:44;;;;;;;8.57;7.05;;;;;;;;;;5011025;28;20439;-80
2022/03/05 01:01:09;;;;;;;8.95;7.30;;;;;;;;;;5007156;28;20461;-80
2022/03/05 01:03:35;;;;;;;9.13;7.30;;;;;;;;;;4992167;28;20952;-80
2022/03/05 01:06:00;;;;;;;9.63;7.05;;;;;;;;;;4992997;28;20724;-81
2022/03/05 01:08:26;;;;;;;8.98;7.38;;;;;;;;;;4999026;28;20042;-81
2022/03/05 01:10:51;;;;;;;9.20;7.22;;;;;;;;;;4994801;28;20129;-81
2022/03/05 01:13:17;;;;;;;8.05;7.00;;;;;;;;;;4995762;28;20044;-81
2022/03/05 01:15:42;;;;;;;9.68;7.72;;;;;;;;;;5010623;28;20046;-80
2022/03/05 01:18:08;;;;;;;8.30;7.30;;;;;;;;;;4959838;28;20080;-80
2022/03/05 01:20:33;;;;;;;10.48;7.20;;;;;;;;;;4995066;28;20500;-81
2022/03/05 01:22:59;;;;;;;8.90;7.78;;;;;;;;;;4996115;28;20052;-80
2022/03/05 01:25:24;;;;;;;9.43;7.75;;;;;;;;;;4996121;28;20448;-80
2022/03/05 01:27:49;;;;;;;7.78;6.75;;;;;;;;;;4995463;28;20424;-80
2022/03/05 01:30:15;;;;;;;8.93;7.35;;;;;;;;;;4991467;28;20393;-80
2022/03/05 01:32:40;;;;;;;8.10;6.95;;;;;;;;;;4984581;28;20046;-80
2022/03/05 01:35:07;;;;;;;8.15;7.20;;;;;;;;;;5002373;28;20060;-80
2022/03/05 01:37:32;;;;;;;8.00;7.00;;;;;;;;;;5011576;28;20415;-80
2022/03/05 01:39:57;;;;;;;8.57;7.38;;;;;;;;;;5012259;28;20117;-80
2022/03/05 01:42:24;;;;;;;8.27;6.53;;;;;;;;;;4979539;28;20028;-80
2022/03/05 01:44:52;;;;;;;8.45;6.95;;;;;;;;;;4994821;28;20057;-80
2022/03/05 01:47:18;;;;;;;9.05;7.20;;;;;;;;;;4994774;28;20057;-80
2022/03/05 01:49:44;;;;;;;8.60;7.05;;;;;;;;;;4995478;28;20041;-81
2022/03/05 01:52:09;;;;;;;8.68;7.15;;;;;;;;;;4989184;28;20034;-80
2022/03/05 01:54:35;;;;;;;7.43;6.35;;;;;;;;;;5011835;28;20060;-80
2022/03/05 01:57:00;;;;;;;8.43;7.22;;;;;;;;;;4990619;28;20033;-80
2022/03/05 01:59:26;;;;;;;9.43;6.90;;;;;;;;;;4968014;28;20037;-80
2022/03/05 02:01:51;;;;;;;8.07;6.72;;;;;;;;;;5002052;28;20030;-80
2022/03/05 02:04:17;;;;;;;8.68;7.03;;;;;;;;;;5010889;28;20046;-80
2022/03/05 02:06:42;;;;;;;7.38;6.55;;;;;;;;;;4992109;28;20054;-80
2022/03/05 02:09:08;;;;;;;9.10;7.05;;;;;;;;;;4975948;28;20121;-80
2022/03/05 02:11:33;;;;;;;8.00;6.32;;;;;;;;;;4978729;28;20092;-80
2022/03/05 02:13:59;;;;;;;8.20;6.00;;;;;;;;;;5011170;28;20068;-80
2022/03/05 02:16:24;;;;;;;9.43;7.25;;;;;;;;;;4960105;28;20057;-80
2022/03/05 02:18:52;;;;;;;7.57;6.43;;;;;;;;;;4994691;28;20091;-80
2022/03/05 02:21:18;;;;;;;9.32;6.68;;;;;;;;;;4995288;28;20034;-80
2022/03/05 02:23:43;;;;;;;7.75;6.22;;;;;;;;;;4995228;28;20038;-80
2022/03/05 02:26:09;;;;;;;8.50;6.88;;;;;;;;;;4994872;28;20037;-80
2022/03/05 02:28:35;;;;;;;7.32;5.80;;;;;;;;;;4994464;28;20087;-80
2022/03/05 02:31:01;;;;;;;8.52;6.70;;;;;;;;;;5007869;28;20401;-81
2022/03/05 02:33:27;;;;;;;8.02;6.53;;;;;;;;;;4991516;28;20034;-81
2022/03/05 02:35:52;;;;;;;9.40;7.32;;;;;;;;;;5008142;28;20633;-80
2022/03/05 02:38:19;;;;;;;7.80;6.63;;;;;;;;;;4994386;28;20046;-80
2022/03/05 02:40:45;;;;;;;7.15;5.75;;;;;;;;;;5011145;28;20029;-80
2022/03/05 02:43:10;;;;;;;8.38;6.80;;;;;;;;;;4994530;28;20041;-80
2022/03/05 02:45:36;;;;;;;8.20;6.93;;;;;;;;;;4994196;28;20041;-80
2022/03/05 02:48:03;;;;;;;9.02;7.22;;;;;;;;;;5011022;28;20053;-80
2022/03/05 02:50:29;;;;;;;7.03;6.28;;;;;;;;;;5011166;28;20033;-80
2022/03/05 02:52:56;;;;;;;6.95;6.15;;;;;;;;;;4991100;28;20109;-80
2022/03/05 02:55:21;;;;;;;6.80;5.57;;;;;;;;;;5007162;28;20038;-80
2022/03/05 02:57:47;;;;;;;7.53;6.43;;;;;;;;;;4984740;28;20425;-81
2022/03/05 03:00:13;;;;;;;8.27;6.18;;;;;;;;;;5009956;28;20041;-80
2022/03/05 03:02:38;;;;;;;9.68;5.88;;;;;;;;;;4990424;28;20042;-80
2022/03/05 03:05:04;;;;;;;6.97;6.10;;;;;;;;;;4994339;28;20420;-81
2022/03/05 03:07:30;;;;;;;8.05;6.10;;;;;;;;;;4993745;28;20117;-80
2022/03/05 03:09:56;;;;;;;7.93;5.80;;;;;;;;;;4994716;28;20107;-80
2022/03/05 03:12:22;;;;;;;7.32;6.32;;;;;;;;;;4994477;28;20061;-80
2022/03/05 03:14:47;;;;;;;8.82;6.32;;;;;;;;;;4977829;28;20042;-81
2022/03/05 03:17:13;;;;;;;7.88;6.20;;;;;;;;;;4994079;28;20424;-80
2022/03/05 03:19:38;;;;;;;6.97;6.22;;;;;;;;;;4961811;28;20061;-80
2022/03/05 03:22:04;;;;;;;7.25;5.78;;;;;;;;;;4990543;28;20057;-81
2022/03/05 03:24:30;;;;;;;7.85;6.60;;;;;;;;;;5025662;28;20044;-81
2022/03/05 03:26:56;;;;;;;7.18;5.75;;;;;;;;;;4989134;28;20137;-83
2022/03/05 03:29:22;;;;;;;8.70;6.32;;;;;;;;;;4994034;28;20034;-85
2022/03/05 03:31:48;;;;;;;7.65;6.22;;;;;;;;;;4993283;28;20077;-85
2022/03/05 03:34:13;;;;;;;7.07;5.80;;;;;;;;;;4981070;28;20435;-85
2022/03/05 03:36:39;;;;;;;7.68;5.93;;;;;;;;;;5014627;28;20042;-85
2022/03/05 03:39:04;;;;;;;7.30;6.57;;;;;;;;;;4981606;28;20062;-85
2022/03/05 03:41:30;;;;;;;7.05;5.80;;;;;;;;;;4997966;28;20411;-85
2022/03/05 03:43:56;;;;;;;8.10;6.18;;;;;;;;;;4993284;28;20076;-85
2022/03/05 03:46:24;;;;;;;7.35;6.22;;;;;;;;;;4997844;28;20034;-84
2022/03/05 03:48:50;;;;;;;7.05;5.20;;;;;;;;;;5014049;28;20037;-85
2022/03/05 03:51:16;;;;;;;7.28;6.07;;;;;;;;;;4981650;28;20033;-85
2022/03/05 03:53:41;;;;;;;7.25;6.45;;;;;;;;;;4997446;28;20046;-85
2022/03/05 03:56:07;;;;;;;7.10;5.82;;;;;;;;;;4987062;28;20034;-85
2022/03/05 03:58:34;;;;;;;7.75;6.53;;;;;;;;;;5010251;28;20096;-85
2022/03/05 04:00:59;;;;;;;7.18;5.53;;;;;;;;;;4997296;28;20037;-85
2022/03/05 04:03:25;;;;;;;7.25;5.85;;;;;;;;;;4993707;28;20038;-85
2022/03/05 04:05:50;;;;;;;6.38;5.65;;;;;;;;;;5010959;28;20042;-85
2022/03/05 04:11:01;;;;;;;7.40;5.70;;;;;;;;;;5014715;28;20034;-85
2022/03/05 04:13:27;;;;;;;7.55;6.75;;;;;;;;;;4996876;28;20072;-85
2022/03/05 04:15:54;;;;;;;6.68;5.95;;;;;;;;;;4994422;28;20424;-84
2022/03/05 04:18:19;;;;;;;6.78;5.30;;;;;;;;;;4998787;28;20038;-84
2022/03/05 04:20:45;;;;;;;7.22;5.80;;;;;;;;;;4993841;28;20428;-85
2022/03/05 04:23:10;;;;;;;6.35;4.97;;;;;;;;;;5009161;28;20049;-85
2022/03/05 04:25:36;;;;;;;8.38;6.38;;;;;;;;;;4980815;28;20046;-85
2022/03/05 04:28:02;;;;;;;6.68;5.32;;;;;;;;;;4997593;28;20049;-85
2022/03/05 04:30:28;;;;;;;7.38;5.68;;;;;;;;;;4981307;28;20030;-84
2022/03/05 04:32:53;;;;;;;6.10;5.32;;;;;;;;;;4980674;28;20117;-85
2022/03/05 04:35:20;;;;;;;6.80;5.57;;;;;;;;;;4988418;28;20119;-85
2022/03/05 04:37:46;;;;;;;6.25;5.18;;;;;;;;;;5013407;28;20046;-84
2022/03/05 04:40:12;;;;;;;6.65;5.75;;;;;;;;;;4981002;28;20065;-85
2022/03/05 04:42:38;;;;;;;6.20;5.35;;;;;;;;;;4996743;28;20038;-85
2022/03/05 04:45:05;;;;;;;8.43;5.88;;;;;;;;;;4996511;28;20080;-85
2022/03/05 04:47:31;;;;;;;6.72;5.68;;;;;;;;;;4996884;28;20049;-85
2022/03/05 04:49:57;;;;;;;6.57;5.88;;;;;;;;;;4997115;28;20041;-85
2022/03/05 04:52:23;;;;;;;6.53;5.38;;;;;;;;;;4980580;28;20034;-85
2022/03/05 04:54:49;;;;;;;6.53;5.82;;;;;;;;;;5005308;28;20040;-85
2022/03/05 04:57:16;;;;;;;6.57;5.30;;;;;;;;;;4975189;28;20042;-85
2022/03/05 04:59:42;;;;;;;7.43;5.50;;;;;;;;;;5013059;28;20507;-85
2022/03/05 05:02:08;;;;;;;6.18;5.35;;;;;;;;;;4994688;28;20077;-84
2022/03/05 05:04:34;;;;;;;6.28;5.05;;;;;;;;;;5011523;28;20049;-85
2022/03/05 05:06:59;;;;;;;6.88;5.85;;;;;;;;;;4996291;28;20046;-85
2022/03/05 05:09:26;;;;;;;6.88;5.28;;;;;;;;;;4995835;28;20056;-85
2022/03/05 05:11:51;;;;;;;6.65;5.78;;;;;;;;;;4980554;28;20042;-85
2022/03/05 05:14:18;;;;;;;7.35;6.00;;;;;;;;;;4993301;28;20157;-84
2022/03/05 05:16:44;;;;;;;6.15;5.03;;;;;;;;;;4993162;28;20130;-85
2022/03/05 05:19:27;;;;;;;6.93;5.50;;;;;;;;;;4979841;28;20034;-85
2022/03/05 05:21:58;;;;;;;6.30;5.43;;;;;;;;;;5000510;28;20074;-85
2022/03/05 05:24:28;;;;;;;6.47;5.55;;;;;;;;;;5008877;28;20038;-85
2022/03/05 05:26:54;;;;;;;7.03;5.72;;;;;;;;;;4976281;28;20042;-85
2022/03/05 05:29:21;;;;;;;6.88;5.88;;;;;;;;;;4979257;28;20413;-85
2022/03/05 05:31:47;;;;;;;6.63;5.25;;;;;;;;;;4992955;28;20405;-85
2022/03/05 05:34:13;;;;;;;6.80;5.60;;;;;;;;;;5002664;28;20605;-84
2022/03/05 05:36:40;;;;;;;6.85;5.80;;;;;;;;;;4991915;28;20085;-85
2022/03/05 05:39:07;;;;;;;7.57;5.72;;;;;;;;;;5008847;28;20424;-85
2022/03/05 05:41:33;;;;;;;6.50;5.25;;;;;;;;;;5009199;28;20041;-85
2022/03/05 05:43:58;;;;;;;6.47;5.78;;;;;;;;;;5005903;28;20559;-84
2022/03/05 05:46:24;;;;;;;7.25;4.95;;;;;;;;;;4995746;28;20042;-85
2022/03/05 05:48:50;;;;;;;5.55;4.25;;;;;;;;;;4995562;28;20068;-85
2022/03/05 05:51:17;;;;;;;6.35;5.28;;;;;;;;;;4995960;28;20056;-85
2022/03/05 05:53:42;;;;;;;5.88;5.05;;;;;;;;;;4978069;28;20038;-85
2022/03/05 05:56:09;;;;;;;6.63;5.88;;;;;;;;;;4995063;28;20050;-85
2022/03/05 05:58:35;;;;;;;5.72;4.88;;;;;;;;;;4970854;28;20045;-85
2022/03/05 06:01:02;;;;;;;6.88;5.72;;;;;;;;;;4968886;28;20050;-85
2022/03/05 06:03:27;;;;;;;5.10;4.43;;;;;;;;;;4990071;28;20030;-85
2022/03/05 06:05:53;;;;;;;7.07;5.13;;;;;;;;;;4994649;28;20054;-85
2022/03/05 06:08:20;;;;;;;5.95;5.03;;;;;;;;;;4991855;28;20046;-84
2022/03/05 06:10:45;;;;;;;6.85;5.10;;;;;;;;;;4994130;28;20069;-85
2022/03/05 06:13:11;;;;;;;7.15;5.75;;;;;;;;;;5008115;28;20037;-82
2022/03/05 06:15:36;;;;;;;5.95;4.90;;;;;;;;;;4999655;28;20172;-82
2022/03/05 06:18:02;;;;;;;6.82;5.53;;;;;;;;;;5000630;28;20394;-82
2022/03/05 06:20:27;;;;;;;6.30;5.32;;;;;;;;;;5011377;28;20416;-83
2022/03/05 06:22:53;;;;;;;6.45;5.05;;;;;;;;;;4976999;28;20413;-82
2022/03/05 06:25:19;;;;;;;7.05;5.65;;;;;;;;;;4995101;28;20046;-82
2022/03/05 06:27:44;;;;;;;7.20;4.90;;;;;;;;;;4978416;28;20447;-81
2022/03/05 06:30:11;;;;;;;6.65;4.95;;;;;;;;;;4986668;28;20485;-82
2022/03/05 06:32:36;;;;;;;6.32;4.75;;;;;;;;;;4975351;28;20068;-81
2022/03/05 06:35:05;;;;;;;6.55;5.55;;;;;;;;;;4991134;28;20042;-82
2022/03/05 06:37:30;;;;;;;6.32;5.47;;;;;;;;;;4975545;28;20038;-82
2022/03/05 06:39:55;;;;;;;6.20;5.45;;;;;;;;;;4990143;28;20054;-82
2022/03/05 06:42:21;;;;;;;6.53;5.32;;;;;;;;;;4993761;28;20037;-82
2022/03/05 06:44:46;;;;;;;6.43;5.07;;;;;;;;;;4991056;28;20046;-82
2022/03/05 06:47:12;;;;;;;6.22;5.25;;;;;;;;;;4994241;28;20401;-81
2022/03/05 06:49:37;;;;;;;6.68;4.90;;;;;;;;;;4992068;28;20557;-80
2022/03/05 06:52:03;;;;;;;6.15;5.03;;;;;;;;;;5000031;28;20042;-80
2022/03/05 06:54:28;;;;;;;7.20;5.63;;;;;;;;;;4991996;28;20046;-81
2022/03/05 06:56:54;;;;;;;6.00;5.00;;;;;;;;;;4995996;28;20454;-81
2022/03/05 06:59:19;;;;;;;6.15;5.55;;;;;;;;;;4972230;28;20030;-81
2022/03/05 07:01:45;;;;;;;5.85;5.00;;;;;;;;;;4987209;28;20033;-79
2022/03/05 07:04:10;;;;;;;6.40;5.25;;;;;;;;;;4993523;28;20458;-79
2022/03/05 07:06:37;;;;;;;6.72;5.20;;;;;;;;;;4989228;28;20050;-81
2022/03/05 07:09:04;;;;;;;7.05;5.35;;;;;;;;;;5010627;28;20052;-88
2022/03/05 07:11:30;;;;;;;6.75;4.97;;;;;;;;;;4992883;28;20364;-80
2022/03/05 07:13:55;;;;;;;6.00;4.97;;;;;;;;;;4993399;28;20038;-79
2022/03/05 07:16:21;;;;;;;6.05;4.60;;;;;;;;;;5002768;28;20492;-80
2022/03/05 07:18:46;;;;;;;5.60;4.55;;;;;;;;;;5004977;28;20045;-79
2022/03/05 07:21:12;;;;;;;7.78;4.80;;;;;;;;;;4998336;28;20034;-80
2022/03/05 07:23:37;;;;;;;5.55;4.72;;;;;;;;;;4998955;28;20046;-81
2022/03/05 07:26:03;;;;;;;8.48;5.93;;;;;;;;;;5009443;28;20083;-80
2022/03/05 07:28:28;;;;;;;7.80;6.47;;;;;;;;;;5002681;28;20428;-80
2022/03/05 07:30:55;;;;;;;10.63;8.15;;;;;;;;;;4984258;28;20034;-81
2022/03/05 07:33:21;;;;;;;11.45;8.65;;;;;;;;;;4994072;28;20037;-82
2022/03/05 07:35:46;;;;;;;11.88;9.23;;;;;;;;;;4986958;28;20060;-84
2022/03/05 07:38:12;;;;;;;13.75;9.95;;;;;;;;;;5007146;28;20073;-80
2022/03/05 07:40:37;;;;;;;14.20;9.43;;;;;;;;;;5006968;28;20444;-80
2022/03/05 07:43:03;;;;;;;11.93;9.57;;;;;;;;;;5010101;28;20048;-80
2022/03/05 07:45:28;;;;;;;13.32;9.88;;;;;;;;;;4993558;28;20060;-85
2022/03/05 07:47:54;;;;;;;13.50;11.13;;;;;;;;;;4993687;28;20048;-83
2022/03/05 07:50:19;;;;;;;15.88;12.43;;;;;;;;;;4993642;28;20408;-82
2022/03/05 07:52:45;;;;;;;16.00;12.90;;;;;;;;;;4990888;28;20408;-82
2022/03/05 07:55:11;;;;;;;17.95;13.30;;;;;;;;;;4990630;28;20042;-82
2022/03/05 07:57:36;;;;;;;18.30;12.55;;;;;;;;;;5002730;28;20041;-83
2022/03/05 08:00:03;;;;;;;18.00;12.05;;;;;;;;;;4968348;28;20030;-82
2022/03/05 08:02:29;;;;;;;19.75;13.15;;;;;;;;;;4985928;28;20045;-84
2022/03/05 08:04:54;;;;;;;19.15;14.32;;;;;;;;;;5001127;28;20036;-84
2022/03/05 08:07:21;;;;;;;18.73;13.88;;;;;;;;;;4991892;28;20050;-84
2022/03/05 08:09:46;;;;;;;25.98;13.73;;;;;;;;;;4982456;28;20037;-83
2022/03/05 08:12:12;;;;;;;18.67;12.77;;;;;;;;;;5003695;28;20129;-82
2022/03/05 08:14:37;;;;;;;14.85;11.30;;;;;;;;;;5005123;28;20046;-82
2022/03/05 08:17:03;;;;;;;20.58;11.57;;;;;;;;;;4985287;28;20452;-82
2022/03/05 08:19:28;;;;;;;16.17;10.18;;;;;;;;;;4978706;28;20037;-81
2022/03/05 08:21:54;;;;;;;16.63;11.02;;;;;;;;;;5020325;28;20042;-83
2022/03/05 08:24:19;;;;;;;16.20;11.27;;;;;;;;;;4998272;28;20037;-82
2022/03/05 08:26:45;;;;;;;15.02;11.05;;;;;;;;;;5003796;28;20136;-82
2022/03/05 08:29:10;;;;;;;14.45;10.10;;;;;;;;;;4996684;28;20450;-82
2022/03/05 08:31:35;;;;;;;14.95;10.25;;;;;;;;;;5011023;28;20393;-82
2022/03/05 08:34:04;;;;;;;20.33;9.75;;;;;;;;;;5008153;28;20034;-82
2022/03/05 08:36:29;;;;;;;15.38;8.65;;;;;;;;;;4997454;28;20049;-82
2022/03/05 08:38:55;;;;;;;18.05;8.95;;;;;;;;;;4989414;28;20045;-82
2022/03/05 08:41:20;;;;;;;17.55;8.98;;;;;;;;;;4983316;28;20489;-82
2022/03/05 08:43:46;;;;;;;16.52;9.45;;;;;;;;;;4983976;28;20046;-82
2022/03/05 08:46:13;;;;;;;12.98;8.15;;;;;;;;;;4993206;28;20045;-82
2022/03/05 08:48:38;;;;;;;13.65;7.95;;;;;;;;;;5001110;28;20038;-82
2022/03/05 08:51:03;;;;;;;16.20;8.63;;;;;;;;;;4992929;28;20485;-82
2022/03/05 08:53:29;;;;;;;11.30;8.65;;;;;;;;;;4996193;28;20046;-82
2022/03/05 08:55:54;;;;;;;12.05;7.43;;;;;;;;;;4964089;28;20038;-82
2022/03/05 08:58:20;;;;;;;11.25;7.53;;;;;;;;;;4995742;28;20129;-82
2022/03/05 09:00:45;;;;;;;11.68;8.35;;;;;;;;;;4993881;28;20125;-82
2022/03/05 09:03:11;;;;;;;13.35;7.72;;;;;;;;;;5009108;28;20042;-80
2022/03/05 09:05:36;;;;;;;9.23;6.90;;;;;;;;;;5009038;28;20076;-80
2022/03/05 09:08:02;;;;;;;9.82;7.63;;;;;;;;;;5012414;28;20040;-80
2022/03/05 09:10:27;;;;;;;10.88;7.72;;;;;;;;;;5012484;28;20491;-80
2022/03/05 09:12:53;;;;;;;9.77;6.85;;;;;;;;;;5012458;28;20516;-80
2022/03/05 09:15:18;;;;;;;11.20;6.93;;;;;;;;;;4976022;28;20038;-80
2022/03/05 09:17:44;;;;;;;14.10;7.28;;;;;;;;;;4995646;28;20067;-79
2022/03/05 09:20:10;;;;;;;9.77;6.70;;;;;;;;;;4992886;28;20082;-80
2022/03/05 09:22:35;;;;;;;10.98;6.68;;;;;;;;;;5012045;28;20038;-80
2022/03/05 09:25:01;;;;;;;8.98;6.38;;;;;;;;;;4996206;28;20046;-80
2022/03/05 09:27:26;;;;;;;10.98;7.07;;;;;;;;;;4979470;28;20030;-80
2022/03/05 09:29:52;;;;;;;9.40;7.03;;;;;;;;;;4994800;28;20034;-81
2022/03/05 09:32:17;;;;;;;10.45;7.10;;;;;;;;;;4978661;28;20076;-79
2022/03/05 09:34:43;;;;;;;12.55;6.43;;;;;;;;;;5010119;28;20483;-80
2022/03/05 09:37:08;;;;;;;14.30;6.82;;;;;;;;;;5012431;28;20038;-80
2022/03/05 09:39:35;;;;;;;9.60;6.47;;;;;;;;;;4995485;28;20041;-82
2022/03/05 09:42:01;;;;;;;24.65;12.35;;;;;;;;;;4995940;28;20081;-82
2022/03/05 09:44:27;;;;;;;13.35;9.35;;;;;;;;;;5011785;28;20076;-83
2022/03/05 09:46:52;;;;;;;19.50;11.10;;;;;;;;;;5011278;28;20404;-83
2022/03/05 09:49:17;;;;;;;20.63;12.15;;;;;;;;;;4995918;28;20065;-83
2022/03/05 09:51:43;;;;;;;18.25;10.68;;;;;;;;;;4992012;28;20509;-80
2022/03/05 09:54:08;;;;;;;14.85;10.27;;;;;;;;;;4999090;28;20034;-80
2022/03/05 09:56:34;;;;;;;16.15;9.43;;;;;;;;;;4980275;28;20030;-82
2022/03/05 09:58:59;;;;;;;23.08;10.35;;;;;;;;;;4994921;28;20046;-81
2022/03/05 10:01:25;;;;;;;20.05;9.48;;;;;;;;;;4994203;28;20034;-81
2022/03/05 10:03:51;;;;;;;15.75;8.93;;;;;;;;;;4991817;28;20072;-81
2022/03/05 10:06:27;;;;;;;14.60;8.60;;;;;;;;;;4990536;28;20038;-85
2022/03/05 10:08:55;;;;;;;34.25;9.70;;;;;;;;;;5011678;28;20042;-82
2022/03/05 10:11:21;;;;;;;15.13;9.43;;;;;;;;;;4979531;28;20412;-82
2022/03/05 10:13:46;;;;;;;16.25;8.13;;;;;;;;;;4995096;28;20049;-82
2022/03/05 10:16:25;;;;;;;21.63;8.00;;;;;;;;;;5013141;28;20034;-84
2022/03/05 10:18:52;;;;;;;16.00;6.90;;;;;;;;;;5016040;28;20034;-88
2022/03/05 10:21:17;;;;;;;17.35;8.52;;;;;;;;;;4992876;28;20512;-85
2022/03/05 10:23:47;;;;;;;13.82;7.30;;;;;;;;;;4989678;28;20042;-83
2022/03/05 10:26:14;;;;;;;11.55;6.95;;;;;;;;;;4986353;28;20439;-85
2022/03/05 10:28:40;;;;;;;15.07;7.07;;;;;;;;;;4998466;28;20512;-84
2022/03/05 10:31:12;;;;;;;9.45;6.57;;;;;;;;;;4982313;28;20036;-86
2022/03/05 10:33:44;;;;;;;12.55;7.43;;;;;;;;;;5014814;28;20133;-83
2022/03/05 10:36:16;;;;;;;11.93;6.35;;;;;;;;;;5000012;28;20041;-83
2022/03/05 10:38:48;;;;;;;11.73;6.83;;;;;;;;;;5014373;28;20050;-83
2022/03/05 10:41:35;;;;;;;11.25;6.63;;;;;;;;;;5016055;28;20037;-81
2022/03/05 10:44:20;;;;;;;9.90;6.70;;;;;;;;;;5013410;28;20547;-82
2022/03/05 10:47:01;;;;;;;13.98;7.57;;;;;;;;;;5030217;28;20061;-81
2022/03/05 10:49:37;;;;;;;10.88;6.95;;;;;;;;;;5013294;28;20031;-79
2022/03/05 10:52:06;;;;;;;12.93;7.45;;;;;;;;;;5015046;28;20038;-80
2022/03/05 10:54:40;;;;;;;13.82;7.00;;;;;;;;;;5015211;28;20525;-80
2022/03/05 10:57:16;;;;;;;18.50;8.50;;;;;;;;;;4999416;28;20038;-79
2022/03/05 10:59:46;;;;;;;10.30;7.00;;;;;;;;;;5011456;28;20571;-83
2022/03/05 11:02:13;;;;;;;14.07;7.00;;;;;;;;;;5011654;28;20168;-81
2022/03/05 11:04:45;;;;;;;12.40;6.75;;;;;;;;;;4997360;28;20046;-81
2022/03/05 11:07:16;;;;;;;10.97;6.53;;;;;;;;;;4997252;28;20041;-81
2022/03/05 11:09:42;;;;;;;13.73;7.05;;;;;;;;;;4979509;28;20417;-80
2022/03/05 11:12:08;;;;;;;13.68;6.35;;;;;;;;;;4999263;28;20057;-81
2022/03/05 11:14:34;;;;;;;9.88;5.65;;;;;;;;;;5032586;28;20042;-81
2022/03/05 11:17:00;;;;;;;10.82;5.40;;;;;;;;;;4992858;28;20034;-81
2022/03/05 11:19:26;;;;;;;9.18;6.03;;;;;;;;;;4992378;28;20134;-81
2022/03/05 11:21:51;;;;;;;5.75;4.55;;;;;;;;;;5001438;28;20034;-81
2022/03/05 11:24:21;;;;;;;9.15;4.95;;;;;;;;;;4990056;28;20041;-81
2022/03/05 11:26:50;;;;;;;10.00;5.95;;;;;;;;;;5004860;28;20033;-81
2022/03/05 11:29:26;;;;;;;7.93;5.50;;;;;;;;;;4999982;28;20116;-79
2022/03/05 11:31:52;;;;;;;6.57;4.70;;;;;;;;;;4997032;28;20042;-79
2022/03/05 11:34:18;;;;;;;7.38;5.03;;;;;;;;;;4996752;28;20068;-78
2022/03/05 11:36:44;;;;;;;9.63;6.93;;;;;;;;;;4999677;28;20042;-79
2022/03/05 11:39:16;;;;;;;16.80;9.90;;;;;;;;;;4990176;28;20049;-78
2022/03/05 11:41:48;;;;;;;;;;;;;;;;;;4999055;28;20034;-77
2022/03/05 11:44:14;;;;;;;14.65;7.65;;;;;;;;;;5030913;28;19921;-77
2022/03/05 11:46:39;;;;;;;12.20;7.57;;;;;;;;;;4999079;28;20034;-77
2022/03/05 11:49:06;;;;;;;16.63;8.50;;;;;;;;;;4999655;28;20052;-78
2022/03/05 11:51:32;;;;;;;9.18;6.50;;;;;;;;;;5000564;28;20068;-78
2022/03/05 11:54:14;;;;;;;11.35;6.53;;;;;;;;;;5001805;28;20513;-77
2022/03/05 11:56:39;;;;;;;11.45;5.75;;;;;;;;;;5019196;28;20066;-77
2022/03/05 11:59:31;;;;;;;37.25;7.22;;;;;;;;;;4997209;28;20073;-78
2022/03/05 12:01:56;;;;;;;13.88;6.40;;;;;;;;;;5019942;28;20046;-78
2022/03/05 12:04:27;;;;;;;16.25;6.03;;;;;;;;;;4996980;28;20041;-78
2022/03/05 12:06:59;;;;;;;11.93;5.65;;;;;;;;;;4998201;28;20045;-79
2022/03/05 12:09:41;;;;;;;9.07;5.77;;;;;;;;;;4994749;28;20078;-78
2022/03/05 12:12:15;;;;;;;9.35;5.85;;;;;;;;;;4995044;28;20046;-78
2022/03/05 12:14:55;;;;;;;9.98;5.18;;;;;;;;;;4992218;28;20494;-78
2022/03/05 12:17:24;;;;;;;8.43;4.80;;;;;;;;;;5011946;28;20068;-79
2022/03/05 12:19:49;;;;;;;8.43;5.22;;;;;;;;;;4994132;28;20179;-79
2022/03/05 12:22:15;;;;;;;11.05;6.22;;;;;;;;;;4996492;28;20042;-79
2022/03/05 12:24:41;;;;;;;10.00;5.03;;;;;;;;;;4980678;28;20034;-79
2022/03/05 12:27:09;;;;;;;11.15;5.00;;;;;;;;;;4992806;28;20041;-78
2022/03/05 12:29:35;;;;;;;6.82;4.78;;;;;;;;;;4980894;28;20030;-78
2022/03/05 12:32:00;;;;;;;9.20;5.30;;;;;;;;;;4980431;28;20121;-78
2022/03/05 12:34:28;;;;;;;7.30;4.47;;;;;;;;;;5011352;28;20132;-78
2022/03/05 12:36:54;;;;;;;12.48;4.72;;;;;;;;;;4989579;28;20078;-78
2022/03/05 12:39:23;;;;;;;9.50;4.80;;;;;;;;;;4976670;28;20083;-79
2022/03/05 12:41:48;;;;;;;7.85;4.82;;;;;;;;;;4978722;28;20089;-78
2022/03/05 12:44:14;;;;;;;10.25;4.80;;;;;;;;;;4997083;28;20038;-78
2022/03/05 12:46:40;;;;;;;7.60;4.53;;;;;;;;;;4992745;28;20034;-78
2022/03/05 12:49:07;;;;;;;6.60;4.80;;;;;;;;;;5005103;28;20112;-78
2022/03/05 12:51:32;;;;;;;9.27;4.68;;;;;;;;;;5013787;28;20049;-78
2022/03/05 12:54:01;;;;;;;10.88;4.43;;;;;;;;;;5011473;28;20042;-79
2022/03/05 12:56:27;;;;;;;12.23;5.28;;;;;;;;;;4996565;28;20034;-77
2022/03/05 12:58:57;;;;;;;8.75;4.97;;;;;;;;;;5028699;28;20062;-77
2022/03/05 13:01:22;;;;;;;11.38;4.32;;;;;;;;;;5012815;28;20030;-77
2022/03/05 13:03:48;;;;;;;9.98;4.88;;;;;;;;;;4977772;28;20436;-77
2022/03/05 13:06:14;;;;;;;8.65;4.60;;;;;;;;;;4996373;28;20088;-78
2022/03/05 13:08:39;;;;;;;12.40;4.05;;;;;;;;;;5006279;28;20472;-77
2022/03/05 13:11:12;;;;;;;14.32;4.97;;;;;;;;;;4995370;28;20046;-78
2022/03/05 13:13:38;;;;;;;9.13;4.20;;;;;;;;;;5012421;28;20053;-77
2022/03/05 13:16:04;;;;;;;8.65;4.80;;;;;;;;;;5008787;28;20049;-78
2022/03/05 13:18:30;;;;;;;15.35;4.15;;;;;;;;;;5005111;28;20492;-78
2022/03/05 13:21:02;;;;;;;9.13;4.72;;;;;;;;;;4988980;28;20044;-78
2022/03/05 13:23:30;;;;;;;8.82;4.00;;;;;;;;;;4993766;28;20421;-79
2022/03/05 13:25:56;;;;;;;6.93;4.43;;;;;;;;;;4990684;28;20520;-79
2022/03/05 13:28:24;;;;;;;8.98;4.22;;;;;;;;;;5012072;28;20042;-79
2022/03/05 13:31:00;;;;;;;12.40;5.25;;;;;;;;;;4992440;28;20037;-80
2022/03/05 13:33:39;;;;;;;8.45;4.90;;;;;;;;;;4990779;28;20484;-80
2022/03/05 13:36:22;;;;;;;12.10;5.60;;;;;;;;;;4992683;28;20034;-80
2022/03/05 13:38:48;;;;;;;8.95;5.00;;;;;;;;;;4997214;28;20381;-79
2022/03/05 13:41:19;;;;;;;8.23;5.07;;;;;;;;;;4995379;28;20034;-79
2022/03/05 13:43:44;;;;;;;7.75;5.20;;;;;;;;;;4995660;28;20065;-79
2022/03/05 13:46:10;;;;;;;10.25;6.50;;;;;;;;;;4993644;28;20041;-79
2022/03/05 13:48:50;;;;;;;9.90;6.03;;;;;;;;;;5019500;28;20041;-79
2022/03/05 13:51:21;;;;;;;8.98;5.43;;;;;;;;;;5011283;28;20111;-79
2022/03/05 13:53:55;;;;;;;11.17;6.53;;;;;;;;;;4992133;28;20041;-80
2022/03/05 13:56:20;;;;;;;11.80;5.75;;;;;;;;;;4995412;28;20269;-79
2022/03/05 13:58:52;;;;;;;10.27;5.82;;;;;;;;;;4974987;28;20069;-79
2022/03/05 14:01:34;;;;;;;;;;;;;;;;;;4994655;28;20048;-81
2022/03/05 14:04:07;;;;;;;14.98;7.78;;;;;;;;;;5010349;28;20014;-83
2022/03/05 14:06:48;;;;;;;11.18;5.38;;;;;;;;;;4993819;28;20049;-84
2022/03/05 14:09:38;;;;;;;9.73;6.38;;;;;;;;;;4992136;28;20038;-82
2022/03/05 14:12:10;;;;;;;10.43;6.38;;;;;;;;;;4998218;28;20054;-83
2022/03/05 14:14:55;;;;;;;14.35;7.07;;;;;;;;;;5007600;28;20516;-86
2022/03/05 14:17:37;;;;;;;11.27;6.00;;;;;;;;;;5010571;28;20560;-87
2022/03/05 14:20:12;;;;;;;13.32;6.88;;;;;;;;;;4995692;28;20038;-83
2022/03/05 14:22:44;;;;;;;12.15;6.28;;;;;;;;;;4996394;28;20040;-83
2022/03/05 14:25:11;;;;;;;;;;;;;;;;;;5011003;28;20041;-83
2022/03/05 14:27:36;;;;;;;10.15;6.05;;;;;;;;;;5011097;28;19916;-83
2022/03/05 14:30:02;;;;;;;9.98;6.18;;;;;;;;;;5011415;28;20049;-83
2022/03/05 14:32:27;;;;;;;13.82;6.32;;;;;;;;;;4978796;28;20037;-87
2022/03/05 14:34:53;;;;;;;9.52;5.43;;;;;;;;;;4990328;28;20140;-83
2022/03/05 14:37:18;;;;;;;11.10;6.43;;;;;;;;;;4978103;28;20523;-84
2022/03/05 14:39:44;;;;;;;10.23;5.63;;;;;;;;;;4978572;28;20132;-84